Accueil
METAR-TAF:

METAR-TAF

Aéroports :

Konya, Turquie

latitude: 37-58N, longitude: 032-33E, altitude: 1032 m

Observation

Le bulletin a été fait il y a 1 heure et 15 minutes, à 17:50 UTC
Vent calme
Température 2°C
Humidité 100%
Pression 1023 hPa
Visibilité: 0300 m
brouillard

METAR: LTAN 201750Z 00000KT 0300 R01/0500N R19/0600N FG VV001 02/02 Q1023 NOSIG

Heure: 22:05 (19:05 UTC)

Prévision

Le bulletin a été fait il y a 2 heures et 25 minutes, à 16:40 UTC
Prévision valable du 20 à 18 UTC au 21 à 03 UTC
Vent 2 kt de direction variable
Visibilité: 1200 m
Nuages fragmentés à une hauteur de 200 ft
bancs de brouillard
Evoluant progressivement
du 20 à 18 UTC au 20 à 19 UTC
Visibilité: 0300 m
à une hauteur de 100 ft
brouillard

TAF: LTAN 201640Z 2018/2103 VRB02KT 1200 BCFG BKN002 BECMG 2018/2019 0300 FG VV001

Observations et prévisions météorologiques de plus de 4000 aéroports (messages METAR et TAF).

Les stations disponibles sont représentées par des disques jaunes et rouges sur la carte.

Passer la souris dessus pour voir le nom de la station.

Cliquer dessus pour voir les observations et prévisions météorologiques.

Pour changer de carte: cliquez sur les boutons verts avec une croix noire pour zoomer, sur le bouton vert avec un tiret pour effectuer un zoom arrière, ou sur les flèches vertes pour les cartes adjacentes.


METAR-TAF: